Time;durP1;ratioP1;P1;durP2;ratioP2;P2;SDS_P1;SDS_P2;PMS_P1;PMS_P2;Temp;Humidity;BMP_temperature;BMP_pressure;BME280_temperature;BME280_humidity;BME280_pressure;Samples;Min_cycle;Max_cycle;Signal;HPM_P1;HPM_P2
2022/11/10 00:00:37;;;;;;;6.97;1.38;;;;;;;;;;5017579;28;20061;-63
2022/11/10 00:03:27;;;;;;;4.68;1.70;;;;;;;;;;5032953;28;20049;-63
2022/11/10 00:06:16;;;;;;;4.22;1.70;;;;;;;;;;5016945;28;20045;-63
2022/11/10 00:09:04;;;;;;;12.52;2.88;;;;;;;;;;5016824;28;20432;-64
2022/11/10 00:11:52;;;;;;;5.93;1.80;;;;;;;;;;5032990;28;20046;-63
2022/11/10 00:17:48;;;;;;;4.43;1.42;;;;;;;;;;5002971;28;20505;-63
2022/11/10 00:20:36;;;;;;;6.75;1.58;;;;;;;;;;5033134;28;20049;-63
2022/11/10 00:23:25;;;;;;;6.80;1.70;;;;;;;;;;5032434;28;20049;-63
2022/11/10 00:26:17;;;;;;;4.82;1.20;;;;;;;;;;5032863;28;20061;-63
2022/11/10 00:29:06;;;;;;;8.02;1.35;;;;;;;;;;5032506;28;20057;-63
2022/11/10 00:31:54;;;;;;;8.75;1.80;;;;;;;;;;5032593;28;20409;-63
2022/11/10 00:34:43;;;;;;;7.38;1.20;;;;;;;;;;5032573;28;20046;-63
2022/11/10 00:37:33;;;;;;;4.43;1.20;;;;;;;;;;5048814;28;20576;-63
2022/11/10 00:40:22;;;;;;;9.13;1.20;;;;;;;;;;5049411;28;20517;-63
2022/11/10 00:43:11;;;;;;;7.88;1.17;;;;;;;;;;5050025;28;20045;-64
2022/11/10 00:46:00;;;;;;;7.90;1.40;;;;;;;;;;5035591;28;20053;-64
2022/11/10 00:48:48;;;;;;;7.75;1.38;;;;;;;;;;5049663;28;20045;-63
2022/11/10 00:51:37;;;;;;;8.45;1.33;;;;;;;;;;5049970;28;20049;-64
2022/11/10 00:54:26;;;;;;;5.13;1.42;;;;;;;;;;5050113;28;20564;-63
2022/11/10 00:57:14;;;;;;;3.78;1.02;;;;;;;;;;5049762;28;20052;-63
2022/11/10 01:00:03;;;;;;;8.15;1.50;;;;;;;;;;5049557;28;20053;-64
2022/11/10 01:02:52;;;;;;;8.07;1.60;;;;;;;;;;5049640;28;20493;-63
2022/11/10 01:05:41;;;;;;;8.50;1.58;;;;;;;;;;5007567;28;20053;-64
2022/11/10 01:08:30;;;;;;;8.73;1.60;;;;;;;;;;5049606;28;20556;-65
2022/11/10 01:11:24;;;;;;;6.97;1.52;;;;;;;;;;5035773;28;20049;-64
2022/11/10 01:14:12;;;;;;;11.00;1.65;;;;;;;;;;5049361;28;20049;-64
2022/11/10 01:17:01;;;;;;;5.88;1.65;;;;;;;;;;5049803;28;20049;-63
2022/11/10 01:19:50;;;;;;;10.30;1.70;;;;;;;;;;5049733;28;20505;-64
2022/11/10 01:22:39;;;;;;;12.00;1.85;;;;;;;;;;5049349;28;20045;-64
2022/11/10 01:25:27;;;;;;;18.00;2.35;;;;;;;;;;5049419;28;20421;-64
2022/11/10 01:28:16;;;;;;;5.97;1.50;;;;;;;;;;4994501;28;20054;-64
2022/11/10 01:31:17;;;;;;;6.10;1.67;;;;;;;;;;5031905;28;20050;-63
2022/11/10 01:34:05;;;;;;;10.25;1.85;;;;;;;;;;5031589;28;20045;-63
2022/11/10 01:36:55;;;;;;;6.90;2.20;;;;;;;;;;5031905;28;20053;-64
2022/11/10 01:39:43;;;;;;;4.45;1.55;;;;;;;;;;5032004;28;20041;-63
2022/11/10 01:42:54;;;;;;;7.50;1.45;;;;;;;;;;5031391;28;20050;-64
2022/11/10 01:45:48;;;;;;;8.93;2.08;;;;;;;;;;5057541;28;20046;-64
2022/11/10 01:48:51;;;;;;;8.27;1.67;;;;;;;;;;5032614;28;20053;-63
2022/11/10 01:52:15;;;;;;;10.90;1.90;;;;;;;;;;5035672;28;20050;-64
2022/11/10 01:55:04;;;;;;;12.30;2.35;;;;;;;;;;5053317;28;20041;-64
2022/11/10 01:57:54;;;;;;;12.57;2.78;;;;;;;;;;5012310;28;20053;-64
2022/11/10 02:00:43;;;;;;;9.93;2.15;;;;;;;;;;5052808;28;20431;-64
2022/11/10 02:03:53;;;;;;;13.40;2.10;;;;;;;;;;5052569;28;20048;-63
2022/11/10 02:06:46;;;;;;;7.35;2.00;;;;;;;;;;5052981;28;20045;-63
2022/11/10 02:09:35;;;;;;;15.52;3.08;;;;;;;;;;5010306;28;20061;-64
2022/11/10 02:12:36;;;;;;;9.30;2.00;;;;;;;;;;5052762;28;20069;-64
2022/11/10 02:15:25;;;;;;;7.85;2.03;;;;;;;;;;5039054;28;20048;-64
2022/11/10 02:18:14;;;;;;;10.13;1.80;;;;;;;;;;5052530;28;20064;-64
2022/11/10 02:21:04;;;;;;;7.50;1.90;;;;;;;;;;5052821;28;20568;-64
2022/11/10 02:23:53;;;;;;;11.77;2.50;;;;;;;;;;5052660;28;20049;-63
2022/11/10 02:26:53;;;;;;;16.33;3.13;;;;;;;;;;5052522;28;20053;-63
2022/11/10 02:29:42;;;;;;;8.02;2.08;;;;;;;;;;5004829;28;20421;-63
2022/11/10 02:32:31;;;;;;;10.45;2.22;;;;;;;;;;5033942;28;20042;-64
2022/11/10 02:35:20;;;;;;;14.63;2.30;;;;;;;;;;5034913;28;20046;-63
2022/11/10 02:38:08;;;;;;;10.95;2.13;;;;;;;;;;5034531;28;20045;-64
2022/11/10 02:40:57;;;;;;;7.15;2.90;;;;;;;;;;5034616;28;20049;-63
2022/11/10 02:43:45;;;;;;;9.00;1.70;;;;;;;;;;5034745;28;20045;-63
2022/11/10 02:46:36;;;;;;;12.15;2.05;;;;;;;;;;5060111;28;20057;-63
2022/11/10 02:49:24;;;;;;;11.50;1.98;;;;;;;;;;5034447;28;20041;-63
2022/11/10 02:52:13;;;;;;;11.02;1.88;;;;;;;;;;5018508;28;20054;-63
2022/11/10 02:55:02;;;;;;;4.53;1.70;;;;;;;;;;5034335;28;20046;-63
2022/11/10 02:57:52;;;;;;;6.70;1.60;;;;;;;;;;5034481;28;20053;-63
2022/11/10 03:00:40;;;;;;;5.55;1.42;;;;;;;;;;5032681;28;20053;-64
2022/11/10 03:03:28;;;;;;;7.93;1.90;;;;;;;;;;5034156;28;20042;-64
2022/11/10 03:06:17;;;;;;;9.30;1.70;;;;;;;;;;5018118;28;20053;-64
2022/11/10 03:09:05;;;;;;;6.90;1.88;;;;;;;;;;5034176;28;20050;-63
2022/11/10 03:11:54;;;;;;;12.65;2.85;;;;;;;;;;5034397;28;20053;-64
2022/11/10 03:14:42;;;;;;;9.85;1.88;;;;;;;;;;5032140;28;20414;-64
2022/11/10 03:17:31;;;;;;;8.85;2.15;;;;;;;;;;5017880;28;20053;-63
2022/11/10 03:20:20;;;;;;;5.40;1.98;;;;;;;;;;5032919;28;20049;-63
2022/11/10 03:23:08;;;;;;;9.60;2.15;;;;;;;;;;5034024;28;20053;-63
2022/11/10 03:25:57;;;;;;;9.50;2.40;;;;;;;;;;5033955;28;20050;-63
2022/11/10 03:28:46;;;;;;;5.22;2.08;;;;;;;;;;5017517;28;20505;-63
2022/11/10 03:31:34;;;;;;;5.75;2.25;;;;;;;;;;5033743;28;20050;-64
2022/11/10 03:34:23;;;;;;;8.32;1.80;;;;;;;;;;5050828;28;20053;-63
2022/11/10 03:37:17;;;;;;;12.77;2.17;;;;;;;;;;5051273;28;20612;-64
2022/11/10 03:40:06;;;;;;;12.57;2.33;;;;;;;;;;5051253;28;20540;-64
2022/11/10 03:42:55;;;;;;;11.85;1.92;;;;;;;;;;5051170;28;20041;-63
2022/11/10 03:45:46;;;;;;;8.32;3.22;;;;;;;;;;5050726;28;20096;-64
2022/11/10 03:48:36;;;;;;;7.75;2.20;;;;;;;;;;5022501;28;20073;-63
2022/11/10 03:51:24;;;;;;;6.78;2.00;;;;;;;;;;5050968;28;20532;-63
2022/11/10 03:54:13;;;;;;;8.43;2.28;;;;;;;;;;5036183;28;20049;-64
2022/11/10 03:57:01;;;;;;;6.80;1.98;;;;;;;;;;5050756;28;20053;-66
2022/11/10 03:59:49;;;;;;;8.45;1.95;;;;;;;;;;5050428;28;20060;-63
2022/11/10 04:02:39;;;;;;;9.30;1.85;;;;;;;;;;5050679;28;20045;-64
2022/11/10 04:18:19;;;;;;;7.22;1.85;;;;;;;;;;5032789;28;20047;-64
2022/11/10 04:21:03;;;;;;;7.32;2.05;;;;;;;;;;5030603;28;20688;-64
2022/11/10 04:23:51;;;;;;;10.38;2.03;;;;;;;;;;5032701;28;20046;-64
2022/11/10 04:26:41;;;;;;;5.85;2.28;;;;;;;;;;5032821;28;20049;-63
2022/11/10 04:29:30;;;;;;;5.15;1.60;;;;;;;;;;5030502;28;20053;-63
2022/11/10 04:32:18;;;;;;;11.05;1.95;;;;;;;;;;5032669;28;20053;-63
2022/11/10 04:35:07;;;;;;;7.97;2.47;;;;;;;;;;5016618;28;20505;-64
2022/11/10 04:37:55;;;;;;;11.05;2.10;;;;;;;;;;5032420;28;20053;-64
2022/11/10 04:40:44;;;;;;;8.90;1.95;;;;;;;;;;5032715;28;20046;-63
2022/11/10 04:43:32;;;;;;;6.78;2.03;;;;;;;;;;5032599;28;20471;-64
2022/11/10 04:46:24;;;;;;;7.93;2.30;;;;;;;;;;5016402;28;20061;-63
2022/11/10 04:49:12;;;;;;;9.02;2.28;;;;;;;;;;5032284;28;20049;-66
2022/11/10 04:52:01;;;;;;;7.32;2.20;;;;;;;;;;5032353;28;20489;-63
2022/11/10 04:54:49;;;;;;;11.32;2.40;;;;;;;;;;5002307;28;20505;-64
2022/11/10 04:57:37;;;;;;;8.88;2.20;;;;;;;;;;5016188;28;20061;-64
2022/11/10 05:00:26;;;;;;;5.20;1.98;;;;;;;;;;5057402;28;20054;-63
2022/11/10 05:03:15;;;;;;;10.45;2.35;;;;;;;;;;5032016;28;20413;-64
2022/11/10 05:06:04;;;;;;;6.10;2.20;;;;;;;;;;5031973;28;20045;-64
2022/11/10 05:08:53;;;;;;;7.50;2.30;;;;;;;;;;5031884;28;20054;-64
2022/11/10 05:11:41;;;;;;;6.15;1.95;;;;;;;;;;5032313;28;20049;-64
2022/11/10 05:14:30;;;;;;;11.75;2.40;;;;;;;;;;5031930;28;20417;-64
2022/11/10 05:17:18;;;;;;;7.35;2.13;;;;;;;;;;5029985;28;20398;-64
2022/11/10 05:20:09;;;;;;;9.23;2.22;;;;;;;;;;5031725;28;20049;-65
2022/11/10 05:26:11;;;;;;;6.97;2.00;;;;;;;;;;5001877;28;20050;-64
2022/11/10 05:28:59;;;;;;;8.15;2.15;;;;;;;;;;5031814;28;20042;-65
2022/11/10 05:31:48;;;;;;;5.00;2.15;;;;;;;;;;5029375;28;20421;-65
2022/11/10 05:34:38;;;;;;;6.47;1.80;;;;;;;;;;5015688;28;20058;-65
2022/11/10 05:37:26;;;;;;;10.38;2.20;;;;;;;;;;5031679;28;20041;-65
2022/11/10 05:40:16;;;;;;;9.80;2.08;;;;;;;;;;5031686;28;20045;-65
2022/11/10 05:43:04;;;;;;;6.47;1.92;;;;;;;;;;5031612;28;20050;-66
2022/11/10 05:45:52;;;;;;;10.90;2.47;;;;;;;;;;5030661;28;20045;-65
2022/11/10 05:48:41;;;;;;;10.68;1.98;;;;;;;;;;5031231;28;20057;-65
2022/11/10 05:51:30;;;;;;;6.82;2.40;;;;;;;;;;5015600;28;20054;-66
2022/11/10 05:54:18;;;;;;;3.95;1.50;;;;;;;;;;5031640;28;20045;-65
2022/11/10 05:57:06;;;;;;;4.82;1.90;;;;;;;;;;5001564;28;20054;-65
2022/11/10 05:59:55;;;;;;;5.80;1.80;;;;;;;;;;5030117;28;20049;-66
2022/11/10 06:02:44;;;;;;;7.85;2.08;;;;;;;;;;5031484;28;20494;-65
2022/11/10 06:05:34;;;;;;;11.30;2.50;;;;;;;;;;5015309;28;20049;-65
2022/11/10 06:08:22;;;;;;;4.93;1.90;;;;;;;;;;5015575;28;20053;-65
2022/11/10 06:11:11;;;;;;;8.73;1.88;;;;;;;;;;5031489;28;20432;-65
2022/11/10 06:14:00;;;;;;;6.60;2.25;;;;;;;;;;5031540;28;20533;-65
2022/11/10 06:16:49;;;;;;;5.70;1.85;;;;;;;;;;5031390;28;20046;-65
2022/11/10 06:19:37;;;;;;;8.00;1.52;;;;;;;;;;5031477;28;20045;-65
2022/11/10 06:22:26;;;;;;;4.68;1.60;;;;;;;;;;5031274;28;20053;-65
2022/11/10 06:25:15;;;;;;;7.45;2.67;;;;;;;;;;5043629;28;20050;-66
2022/11/10 06:28:05;;;;;;;6.03;1.70;;;;;;;;;;5030256;28;20045;-65
2022/11/10 06:30:57;;;;;;;5.22;1.80;;;;;;;;;;5031162;28;20045;-65
2022/11/10 06:33:48;;;;;;;6.60;1.90;;;;;;;;;;5028960;28;20061;-65
2022/11/10 06:36:38;;;;;;;5.90;1.83;;;;;;;;;;5033542;28;20053;-65
2022/11/10 06:39:26;;;;;;;4.78;1.73;;;;;;;;;;5034924;28;20045;-65
2022/11/10 06:42:14;;;;;;;6.80;2.15;;;;;;;;;;5004995;28;20069;-66
2022/11/10 06:45:04;;;;;;;7.35;2.00;;;;;;;;;;5034496;28;20518;-66
2022/11/10 06:48:07;;;;;;;7.80;2.40;;;;;;;;;;5034644;28;20045;-65
2022/11/10 06:50:55;;;;;;;5.22;1.67;;;;;;;;;;5034635;28;20046;-66
2022/11/10 06:53:43;;;;;;;8.50;2.20;;;;;;;;;;5034583;28;20053;-65
2022/11/10 06:56:32;;;;;;;5.55;2.45;;;;;;;;;;5018359;28;20054;-65
2022/11/10 06:59:21;;;;;;;3.65;1.73;;;;;;;;;;5034353;28;20049;-66
2022/11/10 07:02:18;;;;;;;4.75;1.88;;;;;;;;;;5034389;28;20046;-65
2022/11/10 07:05:07;;;;;;;6.05;2.22;;;;;;;;;;5034278;28;20046;-65
2022/11/10 07:07:55;;;;;;;7.50;2.10;;;;;;;;;;5034098;28;20041;-65
2022/11/10 07:10:51;;;;;;;10.80;2.65;;;;;;;;;;5034066;28;20049;-65
2022/11/10 07:13:40;;;;;;;5.20;2.00;;;;;;;;;;5034160;28;20049;-65
2022/11/10 07:16:28;;;;;;;5.78;1.98;;;;;;;;;;5034060;28;20049;-65
2022/11/10 07:19:16;;;;;;;12.13;2.30;;;;;;;;;;5033960;28;20045;-65
2022/11/10 07:22:07;;;;;;;5.53;2.10;;;;;;;;;;5033967;28;20042;-65
2022/11/10 07:24:57;;;;;;;7.30;2.40;;;;;;;;;;5034054;28;20049;-65
2022/11/10 07:27:45;;;;;;;7.75;2.47;;;;;;;;;;5003823;28;20045;-65
2022/11/10 07:30:35;;;;;;;8.55;2.65;;;;;;;;;;5031449;28;20497;-65
2022/11/10 07:33:24;;;;;;;5.88;2.53;;;;;;;;;;5016818;28;20061;-65
2022/11/10 07:36:13;;;;;;;8.52;2.85;;;;;;;;;;5031299;28;20556;-65
2022/11/10 07:39:01;;;;;;;7.72;2.63;;;;;;;;;;5031376;28;20600;-65
2022/11/10 07:41:49;;;;;;;5.82;2.50;;;;;;;;;;5010903;28;20049;-65
2022/11/10 07:44:39;;;;;;;6.95;2.28;;;;;;;;;;5011176;28;20046;-65
2022/11/10 07:47:27;;;;;;;8.18;2.58;;;;;;;;;;5010387;28;20057;-65
2022/11/10 07:50:17;;;;;;;6.93;3.00;;;;;;;;;;5011560;28;20621;-65
2022/11/10 07:53:08;;;;;;;8.23;2.40;;;;;;;;;;5011107;28;20049;-65
2022/11/10 07:55:58;;;;;;;11.30;2.67;;;;;;;;;;5011128;28;20058;-65
2022/11/10 07:58:47;;;;;;;6.72;2.60;;;;;;;;;;5010954;28;20049;-65
2022/11/10 08:01:35;;;;;;;9.38;2.50;;;;;;;;;;5011142;28;20091;-65
2022/11/10 08:04:23;;;;;;;6.65;2.42;;;;;;;;;;4996566;28;20050;-65
2022/11/10 08:07:12;;;;;;;6.45;2.05;;;;;;;;;;5001945;28;20054;-65
2022/11/10 08:10:01;;;;;;;8.27;2.05;;;;;;;;;;5030585;28;20045;-65
2022/11/10 08:13:00;;;;;;;8.20;2.33;;;;;;;;;;5017048;28;20552;-65
2022/11/10 08:15:48;;;;;;;6.25;2.08;;;;;;;;;;5030755;28;20049;-65
2022/11/10 08:18:38;;;;;;;6.78;2.60;;;;;;;;;;5030786;28;20049;-65
2022/11/10 08:21:26;;;;;;;8.40;2.67;;;;;;;;;;5016718;28;20057;-64
2022/11/10 08:24:16;;;;;;;9.68;2.75;;;;;;;;;;5032745;28;20413;-65
2022/11/10 08:27:04;;;;;;;7.28;3.03;;;;;;;;;;5032129;28;20049;-65
2022/11/10 08:29:53;;;;;;;8.57;2.92;;;;;;;;;;5003275;28;20061;-65
2022/11/10 08:32:42;;;;;;;8.95;2.85;;;;;;;;;;5016885;28;20049;-64
2022/11/10 08:35:33;;;;;;;7.60;3.13;;;;;;;;;;5032543;28;20058;-64
2022/11/10 08:38:23;;;;;;;7.40;3.03;;;;;;;;;;5032454;28;20054;-65
2022/11/10 08:41:12;;;;;;;8.90;3.03;;;;;;;;;;5016342;28;20061;-65
2022/11/10 08:44:00;;;;;;;8.25;2.80;;;;;;;;;;5032597;28;20046;-65
2022/11/10 08:46:48;;;;;;;9.30;3.10;;;;;;;;;;5016286;28;20058;-65
2022/11/10 08:49:38;;;;;;;6.25;2.50;;;;;;;;;;5032289;28;20494;-65
2022/11/10 08:52:26;;;;;;;6.95;2.40;;;;;;;;;;5031269;28;20501;-65
2022/11/10 08:55:15;;;;;;;8.57;2.28;;;;;;;;;;5002548;28;20049;-65
2022/11/10 08:58:04;;;;;;;7.30;2.13;;;;;;;;;;5031717;28;20041;-64
2022/11/10 09:00:53;;;;;;;5.20;2.10;;;;;;;;;;5016618;28;20050;-65
2022/11/10 09:03:42;;;;;;;6.00;1.83;;;;;;;;;;5032012;28;20053;-65
2022/11/10 09:06:30;;;;;;;5.32;1.98;;;;;;;;;;5031896;28;20041;-65
2022/11/10 09:09:18;;;;;;;4.68;1.60;;;;;;;;;;5016375;28;20050;-65
2022/11/10 09:12:07;;;;;;;3.90;1.42;;;;;;;;;;5031892;28;20049;-65
2022/11/10 09:14:55;;;;;;;4.18;1.52;;;;;;;;;;5032249;28;20064;-64
2022/11/10 09:17:44;;;;;;;5.90;1.63;;;;;;;;;;5032034;28;20053;-64
2022/11/10 09:20:34;;;;;;;3.67;1.67;;;;;;;;;;5001990;28;20053;-67
2022/11/10 09:23:23;;;;;;;5.75;1.85;;;;;;;;;;5032178;28;20053;-66
2022/11/10 09:26:13;;;;;;;6.20;2.38;;;;;;;;;;5049414;28;20080;-66
2022/11/10 09:29:01;;;;;;;6.40;2.40;;;;;;;;;;5048931;28;20049;-66
2022/11/10 09:31:49;;;;;;;7.05;2.10;;;;;;;;;;5049688;28;20053;-66
2022/11/10 09:34:37;;;;;;;5.53;1.92;;;;;;;;;;5007231;28;20061;-67
2022/11/10 09:37:26;;;;;;;15.75;2.72;;;;;;;;;;5049291;28;20109;-66
2022/11/10 09:40:49;;;;;;;11.85;2.03;;;;;;;;;;5021959;28;20049;-65
2022/11/10 09:44:03;;;;;;;9.20;1.92;;;;;;;;;;5007006;28;20061;-66
2022/11/10 09:47:25;;;;;;;6.05;2.28;;;;;;;;;;5049220;28;20052;-63
2022/11/10 09:50:41;;;;;;;6.88;1.88;;;;;;;;;;4970352;28;20043;-65
2022/11/10 09:54:08;;;;;;;4.38;2.00;;;;;;;;;;4943252;28;20518;-65
2022/11/10 09:57:02;;;;;;;8.02;2.33;;;;;;;;;;4899573;29;20056;-64
2022/11/10 09:59:50;;;;;;;8.55;2.65;;;;;;;;;;4913007;29;20052;-65
2022/11/10 10:03:04;;;;;;;7.72;2.42;;;;;;;;;;4912865;29;20056;-64
2022/11/10 10:06:25;;;;;;;9.73;2.28;;;;;;;;;;4912596;29;20056;-62
2022/11/10 10:09:45;;;;;;;6.80;2.75;;;;;;;;;;4868002;29;20131;-63
2022/11/10 10:12:34;;;;;;;6.55;2.17;;;;;;;;;;4897950;29;20056;-64
2022/11/10 10:15:45;;;;;;;7.57;2.65;;;;;;;;;;4897890;29;20060;-65
2022/11/10 10:18:45;;;;;;;8.32;2.30;;;;;;;;;;4897847;29;20053;-64
2022/11/10 10:21:54;;;;;;;8.70;2.15;;;;;;;;;;4870716;29;20096;-62
2022/11/10 10:24:42;;;;;;;5.30;1.90;;;;;;;;;;4897330;29;20064;-62
2022/11/10 10:27:34;;;;;;;12.32;2.60;;;;;;;;;;4885417;29;20056;-64
2022/11/10 10:30:22;;;;;;;8.15;2.42;;;;;;;;;;4945362;28;20070;-64
2022/11/10 10:33:22;;;;;;;8.30;2.58;;;;;;;;;;4993114;28;20054;-64
2022/11/10 10:36:23;;;;;;;8.63;2.63;;;;;;;;;;4965276;28;20050;-63
2022/11/10 10:39:34;;;;;;;6.22;3.25;;;;;;;;;;4965278;28;20070;-64
2022/11/10 10:42:25;;;;;;;9.15;3.92;;;;;;;;;;4978889;28;20511;-64
2022/11/10 10:45:16;;;;;;;7.32;3.20;;;;;;;;;;4994945;28;20062;-64
2022/11/10 10:48:28;;;;;;;9.45;3.17;;;;;;;;;;5034417;28;20045;-64
2022/11/10 10:51:31;;;;;;;8.82;3.50;;;;;;;;;;5034381;28;20509;-62
2022/11/10 10:54:27;;;;;;;12.25;4.07;;;;;;;;;;5034568;28;20437;-62
2022/11/10 10:57:29;;;;;;;9.77;3.65;;;;;;;;;;5046477;28;20049;-64
2022/11/10 11:00:22;;;;;;;10.50;3.47;;;;;;;;;;5034397;28;20421;-65
2022/11/10 11:03:28;;;;;;;6.07;2.90;;;;;;;;;;5018142;28;20504;-65
2022/11/10 11:06:18;;;;;;;6.50;3.25;;;;;;;;;;5034257;28;20045;-64
2022/11/10 11:09:14;;;;;;;14.63;3.70;;;;;;;;;;5034223;28;20417;-63
2022/11/10 11:12:25;;;;;;;12.32;4.90;;;;;;;;;;5034010;28;20046;-63
2022/11/10 11:15:29;;;;;;;11.05;3.38;;;;;;;;;;5034238;28;20054;-63
2022/11/10 11:18:19;;;;;;;11.73;3.55;;;;;;;;;;5033953;28;20049;-62
2022/11/10 11:21:14;;;;;;;;;;;;;;;;;;5033687;28;20041;-64
2022/11/10 11:24:27;;;;;;;7.50;2.78;;;;;;;;;;5033886;28;19921;-62
2022/11/10 11:27:23;;;;;;;5.50;1.80;;;;;;;;;;5033933;28;20501;-62
2022/11/10 11:30:20;;;;;;;5.30;2.22;;;;;;;;;;5033572;28;20057;-62
2022/11/10 11:33:09;;;;;;;4.85;1.98;;;;;;;;;;5034051;28;20053;-62
2022/11/10 11:36:08;;;;;;;5.25;1.98;;;;;;;;;;5033798;28;20050;-62
2022/11/10 11:39:15;;;;;;;6.55;1.90;;;;;;;;;;5017635;28;20046;-62
2022/11/10 11:42:30;;;;;;;4.40;1.98;;;;;;;;;;5017298;28;20054;-63
2022/11/10 11:45:26;;;;;;;5.10;2.17;;;;;;;;;;5033433;28;20049;-62
2022/11/10 11:48:27;;;;;;;7.00;1.90;;;;;;;;;;5017345;28;20049;-62
2022/11/10 11:51:29;;;;;;;4.38;1.88;;;;;;;;;;5032997;28;20493;-62
2022/11/10 11:54:27;;;;;;;8.25;2.15;;;;;;;;;;5033360;28;20041;-63
2022/11/10 11:57:40;;;;;;;3.42;2.00;;;;;;;;;;5003478;28;20053;-63
2022/11/10 12:00:36;;;;;;;3.53;1.95;;;;;;;;;;5032991;28;20049;-62
2022/11/10 12:03:53;;;;;;;6.07;2.92;;;;;;;;;;5032270;28;20054;-63
2022/11/10 12:06:48;;;;;;;6.28;2.10;;;;;;;;;;5003245;28;20049;-62
2022/11/10 12:09:56;;;;;;;5.50;2.45;;;;;;;;;;5017008;28;20057;-62
2022/11/10 12:12:58;;;;;;;4.07;1.92;;;;;;;;;;5003728;28;20058;-62
2022/11/10 12:16:07;;;;;;;3.25;1.77;;;;;;;;;;5031279;28;20049;-62
2022/11/10 12:19:17;;;;;;;5.78;2.13;;;;;;;;;;5032749;28;20053;-62
2022/11/10 12:22:28;;;;;;;4.53;2.00;;;;;;;;;;5032582;28;20413;-62
2022/11/10 12:26:06;;;;;;;5.00;1.92;;;;;;;;;;5049865;28;20049;-62
2022/11/10 12:29:04;;;;;;;4.13;1.90;;;;;;;;;;4911742;28;20047;-63
2022/11/10 12:32:00;;;;;;;3.63;2.03;;;;;;;;;;4952734;28;20047;-63
2022/11/10 12:35:05;;;;;;;4.47;2.33;;;;;;;;;;4924802;29;20101;-63
2022/11/10 12:38:01;;;;;;;5.38;2.10;;;;;;;;;;4938132;29;20055;-63
2022/11/10 12:40:54;;;;;;;4.22;1.65;;;;;;;;;;4952077;28;20051;-63
2022/11/10 12:43:57;;;;;;;5.50;2.20;;;;;;;;;;4952305;28;20051;-63
2022/11/10 12:46:48;;;;;;;4.40;2.08;;;;;;;;;;4951973;28;20056;-63
2022/11/10 12:49:54;;;;;;;18.25;10.05;;;;;;;;;;4951968;28;20059;-63
2022/11/10 12:53:26;;;;;;;13.45;6.75;;;;;;;;;;4951946;28;20051;-63
2022/11/10 12:56:22;;;;;;;6.50;3.60;;;;;;;;;;4894232;29;20120;-63
2022/11/10 12:59:21;;;;;;;4.65;2.53;;;;;;;;;;4894500;29;20056;-64
2022/11/10 13:02:32;;;;;;;5.82;2.42;;;;;;;;;;4884856;29;20052;-63
2022/11/10 13:05:28;;;;;;;4.65;2.17;;;;;;;;;;4891681;29;20063;-62
2022/11/10 13:08:44;;;;;;;4.53;1.80;;;;;;;;;;4873485;29;20048;-63
2022/11/10 13:11:36;;;;;;;4.40;1.95;;;;;;;;;;4886662;29;20416;-64
2022/11/10 13:14:30;;;;;;;5.22;2.33;;;;;;;;;;4886673;29;20060;-63
2022/11/10 13:17:26;;;;;;;7.40;4.53;;;;;;;;;;4913555;29;20056;-64
2022/11/10 13:20:39;;;;;;;4.78;2.05;;;;;;;;;;4913670;29;20576;-63
2022/11/10 13:23:55;;;;;;;4.72;2.05;;;;;;;;;;4913483;29;20052;-63
2022/11/10 13:26:44;;;;;;;3.85;2.65;;;;;;;;;;4886122;29;20060;-63
2022/11/10 13:29:55;;;;;;;5.63;2.00;;;;;;;;;;4886836;29;20071;-63
2022/11/10 13:32:43;;;;;;;6.68;3.10;;;;;;;;;;4964122;28;20049;-63
2022/11/10 13:35:38;;;;;;;7.43;4.28;;;;;;;;;;5031894;28;20058;-63
2022/11/10 13:38:34;;;;;;;5.38;2.30;;;;;;;;;;5030850;28;20054;-63
2022/11/10 13:41:25;;;;;;;4.28;2.40;;;;;;;;;;5031555;28;20402;-63
2022/11/10 13:44:39;;;;;;;4.63;2.20;;;;;;;;;;5031990;28;20045;-64
2022/11/10 13:47:54;;;;;;;6.00;2.28;;;;;;;;;;5035875;28;20509;-63
2022/11/10 13:51:23;;;;;;;6.68;2.30;;;;;;;;;;5035846;28;20046;-63
2022/11/10 13:54:51;;;;;;;7.78;3.33;;;;;;;;;;5059063;28;20052;-63
2022/11/10 13:57:57;;;;;;;7.78;2.80;;;;;;;;;;5073066;28;20579;-63
2022/11/10 14:01:11;;;;;;;4.50;2.33;;;;;;;;;;5073268;28;20045;-64
2022/11/10 14:04:03;;;;;;;7.90;2.20;;;;;;;;;;5059152;28;20080;-62
2022/11/10 14:06:54;;;;;;;4.70;1.85;;;;;;;;;;5072852;28;20080;-62
2022/11/10 14:09:47;;;;;;;4.25;2.00;;;;;;;;;;5073184;28;20052;-62
2022/11/10 14:12:52;;;;;;;2.78;1.73;;;;;;;;;;5059021;28;20048;-63
2022/11/10 14:15:47;;;;;;;5.95;2.63;;;;;;;;;;5044549;28;20056;-64
2022/11/10 14:18:47;;;;;;;14.75;5.97;;;;;;;;;;5043992;28;20052;-64
2022/11/10 14:21:44;;;;;;;5.50;2.20;;;;;;;;;;5072633;28;20408;-64
2022/11/10 14:24:50;;;;;;;3.90;2.22;;;;;;;;;;5032328;28;20058;-64
2022/11/10 14:27:40;;;;;;;3.83;2.03;;;;;;;;;;5034433;28;20409;-64
2022/11/10 14:30:32;;;;;;;8.13;2.45;;;;;;;;;;5034893;28;20041;-63
2022/11/10 14:33:22;;;;;;;2.67;1.70;;;;;;;;;;5034965;28;20437;-64
2022/11/10 14:36:12;;;;;;;3.30;2.00;;;;;;;;;;5034777;28;20045;-63
2022/11/10 14:39:07;;;;;;;7.30;1.90;;;;;;;;;;5034676;28;20053;-64
2022/11/10 14:42:00;;;;;;;4.53;1.90;;;;;;;;;;5034537;28;20049;-63
2022/11/10 14:44:48;;;;;;;3.72;1.85;;;;;;;;;;5034708;28;20049;-63
2022/11/10 14:47:37;;;;;;;3.75;1.90;;;;;;;;;;5034610;28;20049;-63
2022/11/10 14:50:32;;;;;;;3.00;1.88;;;;;;;;;;5034388;28;20049;-64
2022/11/10 14:53:46;;;;;;;6.20;2.40;;;;;;;;;;5034620;28;20050;-64
2022/11/10 14:56:39;;;;;;;8.75;2.05;;;;;;;;;;4982899;28;20053;-64
2022/11/10 14:59:28;;;;;;;4.78;2.15;;;;;;;;;;4971624;28;20066;-63
2022/11/10 15:02:18;;;;;;;5.30;1.90;;;;;;;;;;5012489;28;20054;-63
2022/11/10 15:05:13;;;;;;;4.82;1.70;;;;;;;;;;5012406;28;20079;-64
2022/11/10 15:08:04;;;;;;;5.35;1.75;;;;;;;;;;4970577;28;20054;-63
2022/11/10 15:10:55;;;;;;;6.90;1.88;;;;;;;;;;5012150;28;20041;-64
2022/11/10 15:13:44;;;;;;;5.57;2.08;;;;;;;;;;4984042;28;20413;-66
2022/11/10 15:16:38;;;;;;;5.38;2.22;;;;;;;;;;5012176;28;20046;-63
2022/11/10 15:19:31;;;;;;;5.38;1.90;;;;;;;;;;4970151;28;20402;-64
2022/11/10 15:22:22;;;;;;;3.50;1.92;;;;;;;;;;5011634;28;20053;-63
2022/11/10 15:25:20;;;;;;;3.88;1.92;;;;;;;;;;4970315;28;20448;-63
2022/11/10 15:28:20;;;;;;;2.83;1.73;;;;;;;;;;5011694;28;20049;-63
2022/11/10 15:31:13;;;;;;;5.07;1.90;;;;;;;;;;4997369;28;20073;-62
2022/11/10 15:34:04;;;;;;;4.95;1.80;;;;;;;;;;5027987;28;20502;-62
2022/11/10 15:37:09;;;;;;;5.97;1.60;;;;;;;;;;5032846;28;20045;-64
2022/11/10 15:40:30;;;;;;;4.47;1.50;;;;;;;;;;5017669;28;20061;-62
2022/11/10 15:43:23;;;;;;;5.13;1.40;;;;;;;;;;5033613;28;20493;-62
2022/11/10 15:46:15;;;;;;;2.55;1.40;;;;;;;;;;5017315;28;20053;-64
2022/11/10 15:49:28;;;;;;;3.63;1.90;;;;;;;;;;5045420;28;20053;-62
2022/11/10 15:52:23;;;;;;;5.97;1.63;;;;;;;;;;5010956;28;20057;-62
2022/11/10 15:55:22;;;;;;;3.17;1.50;;;;;;;;;;5011516;28;20042;-63
2022/11/10 15:58:19;;;;;;;6.40;1.80;;;;;;;;;;5010881;28;20089;-63
2022/11/10 16:01:11;;;;;;;2.10;1.40;;;;;;;;;;5010548;28;20053;-62
2022/11/10 16:03:59;;;;;;;3.60;1.55;;;;;;;;;;5011107;28;20054;-62
2022/11/10 16:06:48;;;;;;;4.40;1.60;;;;;;;;;;5011221;28;20050;-63
2022/11/10 16:09:36;;;;;;;5.18;1.27;;;;;;;;;;4969357;28;20042;-63
2022/11/10 16:12:25;;;;;;;3.92;1.40;;;;;;;;;;4983186;28;20046;-62
2022/11/10 16:15:20;;;;;;;3.78;1.23;;;;;;;;;;5011001;28;20050;-62
2022/11/10 16:18:14;;;;;;;3.05;1.35;;;;;;;;;;4996508;28;20050;-63
2022/11/10 16:21:02;;;;;;;1.80;1.20;;;;;;;;;;4997202;28;20057;-62
2022/11/10 16:23:52;;;;;;;1.50;1.20;;;;;;;;;;5010549;28;20053;-63
2022/11/10 16:26:41;;;;;;;;;;;;;;;;;;4997706;28;20046;-63
2022/11/10 16:29:32;;;;;;;4.15;1.33;;;;;;;;;;5023920;28;20385;-63
2022/11/10 16:32:21;;;;;;;3.60;1.17;;;;;;;;;;5032917;28;20053;-62
2022/11/10 16:35:13;;;;;;;2.67;1.30;;;;;;;;;;5032591;28;20045;-61
2022/11/10 16:38:02;;;;;;;2.35;1.30;;;;;;;;;;5002814;28;20530;-62
2022/11/10 16:41:01;;;;;;;3.58;1.35;;;;;;;;;;5032580;28;20045;-62
2022/11/10 16:43:50;;;;;;;2.22;1.30;;;;;;;;;;5032617;28;20045;-62
2022/11/10 16:46:40;;;;;;;4.07;1.33;;;;;;;;;;5016255;28;20241;-63
2022/11/10 16:49:34;;;;;;;4.25;1.08;;;;;;;;;;5016369;28;20049;-62
2022/11/10 16:52:23;;;;;;;3.35;1.40;;;;;;;;;;5032458;28;20042;-62
2022/11/10 16:55:12;;;;;;;5.18;1.65;;;;;;;;;;5032264;28;20049;-61
2022/11/10 16:58:01;;;;;;;2.72;1.40;;;;;;;;;;5032357;28;20049;-62
2022/11/10 17:00:49;;;;;;;2.22;1.00;;;;;;;;;;5032265;28;20054;-62
2022/11/10 17:03:45;;;;;;;4.47;1.83;;;;;;;;;;5015851;28;20603;-62
2022/11/10 17:06:35;;;;;;;4.35;1.20;;;;;;;;;;5032400;28;20057;-63
2022/11/10 17:09:25;;;;;;;2.80;1.45;;;;;;;;;;5032081;28;20045;-62
2022/11/10 17:12:14;;;;;;;2.53;1.13;;;;;;;;;;5015935;28;20501;-63
2022/11/10 17:15:03;;;;;;;3.10;1.20;;;;;;;;;;5031952;28;20045;-62
2022/11/10 17:17:55;;;;;;;3.83;1.40;;;;;;;;;;5016142;28;20045;-63
2022/11/10 17:20:51;;;;;;;3.15;1.42;;;;;;;;;;5031461;28;20054;-62
2022/11/10 17:23:40;;;;;;;3.17;1.42;;;;;;;;;;5032032;28;20045;-63
2022/11/10 17:26:29;;;;;;;3.72;1.30;;;;;;;;;;5031824;28;20049;-62
2022/11/10 17:29:20;;;;;;;2.17;1.35;;;;;;;;;;5015792;28;20053;-63
2022/11/10 17:32:09;;;;;;;2.95;1.40;;;;;;;;;;5043681;28;20046;-62
2022/11/10 17:34:57;;;;;;;3.28;1.15;;;;;;;;;;5031597;28;20041;-62
2022/11/10 17:37:53;;;;;;;3.00;1.60;;;;;;;;;;5015655;28;20049;-62